Psebay, Russia
Current Conditions -  °F | °C
As of 12:00 AM on Tuesday 21 Oct 2014 (Local Time) from URSS Reporting Station
Scattered Clouds Scattered Clouds  
Wind Chill: 50°   Ceiling: Unl
Heat Index: 50°   Visibility: 6mi
Dew Point: 43°   Wind: 11mph
Humidity: 76%   Direction: 70°ENE
Pressure: 30.12"   Gusts: NA
Location:  44.11°N, 40.77°E
Report Text: URSS 202100Z 07005MPS 9999 SCT031 10/06 Q1020 NOSIG RMKR02/06005MPS MT OBSC QFE764 06000070 02000070
Loading
Personal Weather Stations






























Interactive Weather Map
Tropical Storm Tracking
New forecast layout! Learn more

10-Day Weather Forecast

Advertisements
Track Severe Weather on mobile